Long Valley, NJ (07853)

8:31 AM EST on February 11, 2016 (GMT -0500)
Forest View | | Change Station
CLOSE
Current Station
Personal Weather Station
Location: Washington Township, NJ
Elevation: 892 ft
Nearby Weather Stations

Elev 892 ft 40.77 °N, 74.76 °W | Updated 28 seconds ago

Clear
Clear
16.9 °F
Feels Like 8 °F
N
6.3
Wind Variable Wind from ENE

Today
High -- | Low -- °F
--% Chance of Precip.
Yesterday
High -- | Low -- °F
Precip. -- in
Pressure 29.92 in
Visibility 10.0 miles
Clouds Clear
Windchill 8 °F
Dew Point 2 °F
Humidity 52%
Rainfall 0.00 in
Snow Depth Not available.
6:58 AM 5:28 PM
Waxing Crescent, 12% visible
METAR KSMQ 111253Z AUTO VRB06KT 10SM CLR M06/M16 A2991 RMK AO2 SLP130 T10611156
Pressure 29.92 in
Visibility 10.0 miles
Clouds Clear
Windchill 8 °F
Dew Point 2 °F
Humidity 52%
Rainfall 0.00 in
Snow Depth Not available.
6:58 AM 5:28 PM
Waxing Crescent, 12% visible
METAR KSMQ 111253Z AUTO VRB06KT 10SM CLR M06/M16 A2991 RMK AO2 SLP130 T10611156

10-Day Weather Forecast

Almanac

Astronomy

Feb. 11, 2016 Rise Set
Actual Time
Civil Twilight
Nautical Twilight
Astronomical Twilight
Moon
Length of Visible Light
Length of Day
Tomorrow will be .
, % of the Moon is Illuminated

Today's Extremes

State Highs State Lows

Community

WunderPhotos

Upload Photos

1,892,045 photos uploaded!

WunderBlog® & News

Nearby

Air Quality

  Air Quality AQ Index Pollutant
Not available.

Snow Depth

Station Depth Elevation

Earthquake Activity

City Distance Mag. Time & Date
Minimum magnitude displayed is 2.5.

Coastal Water Temperatures

Place Temperature

Stations

Nearby Weather Stations

Station Location Temp. Windchill Dew Point Humidity Wind Precip. Elev Updated Type
                   

Watches & Warnings

There are currently no watches in effect.